Airfield :
LOGIN :

Register | Disclaimer

   EN    FR    IT 

 










Legend :    VFR   Marginal VFR   IFR   Intensive IFR   Very Intensive IFR
Visi :
Ceiling :
>= 8 km
>= 3000ft
5 to 8 km
1000 to 3000 ft
1500m to 5 km
500 to 1000 ft
800 to 1500m
200 to 500 ft
< 800m
< 200 ft
Symbols :   Thunderstorms  Fog  Heavy snow  Heavy precipitations  Wind > 20 kt
SIGMETs :     Misc.  Thunderstorms  Icing  Turbulence  Mountain Waves  Volcanic Ashes







- Airport Elevation : 137 ft
- IATA code : ARN


ESSA - Stockholm-Arlanda

CURRENT METAR :
  • 180550Z 16009KT 6000 OVC003 02/01 Q1016 R01L/19//95 R08/19//95 R01R/19//95 NOSIG

EXPIRED METARs :
  • 180520Z 17009KT 8000 OVC004 02/01 Q1016 R01L/19//95 R08/19//95 R01R/19//95 NOSIG
  • 180450Z 17007KT 9999 BKN006 02/00 Q1017 R01L/19//95 R08/19//95 R01R/19//95 NOSIG
  • 180420Z 16008KT 9999 BKN014 OVC017 02/00 Q1017 R01L/19//95 R08/19//95 R01R/19//95 NOSIG
  • 180350Z 17008KT 9999 OVC013 02/M00 Q1017 R01L/19//95 R08/19//95 R01R/19//95 NOSIG
  • 180320Z 16007KT 9999 OVC007 02/M01 Q1018 R01L/19//95 R08/19//95 R01R/19//95 NOSIG

TAF TAF ESSA
Valid from the 18 at 06:00 until the 19 at 06:00 UTC


180530Z 1806/1906 17006KT 9999 BKN006
PROB40 1806/1809 2000 BR OVC004
PROB40 1809/1813 SCT008 BKN015
BECMG 1813/1815 BKN015
No reported NOTAMs for that airfield.



MET'MAP, your aeronautical weather chart ! - Copyright ORBIFLY December 2007 - Disclaimer

ORBIFLY MET'MAP TEAM :

Programming & Development : Alexandra Zaïnal
Concept & Development : Baudouin d'Aumeries
Co-Development & Prog : Marc-Olivier Méhu
Technical & hardware support : Manuel Goepfert

Contact : metmap@orbifly.com




SOURCES & CREDITS :

   NOAA